sensor_id;sensor_type;location;lat;lon;timestamp;P1;durP1;ratioP1;P2;durP2;ratioP2
22679;SDS011;11507;44.858;10.374;2023-05-16T00:04:40;12.77;;;9.77;;
22679;SDS011;11507;44.858;10.374;2023-05-16T00:07:06;13.13;;;10.77;;
22679;SDS011;11507;44.858;10.374;2023-05-16T00:11:59;11.90;;;9.50;;
22679;SDS011;11507;44.858;10.374;2023-05-16T00:16:51;14.23;;;8.98;;
22679;SDS011;11507;44.858;10.374;2023-05-16T00:19:18;12.23;;;9.98;;
22679;SDS011;11507;44.858;10.374;2023-05-16T00:21:44;13.73;;;11.95;;
22679;SDS011;11507;44.858;10.374;2023-05-16T00:24:13;18.27;;;12.57;;
22679;SDS011;11507;44.858;10.374;2023-05-16T00:26:40;17.17;;;13.27;;
22679;SDS011;11507;44.858;10.374;2023-05-16T00:29:07;15.27;;;12.85;;
22679;SDS011;11507;44.858;10.374;2023-05-16T00:31:33;18.00;;;13.20;;
22679;SDS011;11507;44.858;10.374;2023-05-16T00:34:00;15.65;;;12.13;;
22679;SDS011;11507;44.858;10.374;2023-05-16T00:36:27;15.77;;;12.70;;
22679;SDS011;11507;44.858;10.374;2023-05-16T00:41:22;17.83;;;13.23;;
22679;SDS011;11507;44.858;10.374;2023-05-16T00:43:49;16.00;;;12.85;;
22679;SDS011;11507;44.858;10.374;2023-05-16T00:46:16;15.98;;;12.93;;
22679;SDS011;11507;44.858;10.374;2023-05-16T00:48:41;18.25;;;13.40;;
22679;SDS011;11507;44.858;10.374;2023-05-16T00:53:35;15.27;;;11.93;;
22679;SDS011;11507;44.858;10.374;2023-05-16T00:56:04;18.33;;;14.02;;
22679;SDS011;11507;44.858;10.374;2023-05-16T00:58:31;21.00;;;14.52;;
22679;SDS011;11507;44.858;10.374;2023-05-16T01:00:58;18.65;;;13.52;;
22679;SDS011;11507;44.858;10.374;2023-05-16T01:03:28;16.98;;;13.05;;
22679;SDS011;11507;44.858;10.374;2023-05-16T01:08:23;17.67;;;12.00;;
22679;SDS011;11507;44.858;10.374;2023-05-16T01:13:47;18.50;;;12.73;;
22679;SDS011;11507;44.858;10.374;2023-05-16T01:16:30;19.08;;;13.38;;
22679;SDS011;11507;44.858;10.374;2023-05-16T01:22:11;19.50;;;13.40;;
22679;SDS011;11507;44.858;10.374;2023-05-16T01:25:01;19.63;;;13.73;;
22679;SDS011;11507;44.858;10.374;2023-05-16T01:27:36;18.90;;;13.57;;
22679;SDS011;11507;44.858;10.374;2023-05-16T01:30:14;18.35;;;14.02;;
22679;SDS011;11507;44.858;10.374;2023-05-16T01:32:47;16.50;;;13.05;;
22679;SDS011;11507;44.858;10.374;2023-05-16T01:35:13;18.38;;;14.38;;
22679;SDS011;11507;44.858;10.374;2023-05-16T01:37:44;22.35;;;15.20;;
22679;SDS011;11507;44.858;10.374;2023-05-16T01:40:34;26.38;;;15.82;;
22679;SDS011;11507;44.858;10.374;2023-05-16T01:43:10;22.23;;;14.48;;
22679;SDS011;11507;44.858;10.374;2023-05-16T01:45:46;17.58;;;14.23;;
22679;SDS011;11507;44.858;10.374;2023-05-16T01:48:26;18.95;;;14.40;;
22679;SDS011;11507;44.858;10.374;2023-05-16T01:50:59;20.50;;;14.57;;
22679;SDS011;11507;44.858;10.374;2023-05-16T01:53:28;19.80;;;14.75;;
22679;SDS011;11507;44.858;10.374;2023-05-16T01:56:07;18.52;;;15.18;;
22679;SDS011;11507;44.858;10.374;2023-05-16T01:58:35;19.55;;;14.55;;
22679;SDS011;11507;44.858;10.374;2023-05-16T02:01:03;17.35;;;14.07;;
22679;SDS011;11507;44.858;10.374;2023-05-16T02:03:30;27.25;;;15.68;;
22679;SDS011;11507;44.858;10.374;2023-05-16T02:05:56;20.48;;;15.68;;
22679;SDS011;11507;44.858;10.374;2023-05-16T02:08:26;18.45;;;15.55;;
22679;SDS011;11507;44.858;10.374;2023-05-16T02:10:53;21.08;;;15.82;;
22679;SDS011;11507;44.858;10.374;2023-05-16T02:13:19;25.88;;;17.35;;
22679;SDS011;11507;44.858;10.374;2023-05-16T02:18:11;21.10;;;16.20;;
22679;SDS011;11507;44.858;10.374;2023-05-16T02:20:38;24.80;;;16.27;;
22679;SDS011;11507;44.858;10.374;2023-05-16T02:23:06;22.45;;;16.15;;
22679;SDS011;11507;44.858;10.374;2023-05-16T02:25:32;22.73;;;17.00;;
22679;SDS011;11507;44.858;10.374;2023-05-16T02:30:25;22.30;;;16.70;;
22679;SDS011;11507;44.858;10.374;2023-05-16T02:32:54;22.90;;;17.23;;
22679;SDS011;11507;44.858;10.374;2023-05-16T02:35:20;24.25;;;17.58;;
22679;SDS011;11507;44.858;10.374;2023-05-16T02:37:46;25.45;;;17.20;;
22679;SDS011;11507;44.858;10.374;2023-05-16T02:42:38;21.67;;;15.60;;
22679;SDS011;11507;44.858;10.374;2023-05-16T02:45:06;25.42;;;17.17;;
22679;SDS011;11507;44.858;10.374;2023-05-16T02:50:04;23.15;;;17.45;;
22679;SDS011;11507;44.858;10.374;2023-05-16T02:52:32;23.98;;;16.25;;
22679;SDS011;11507;44.858;10.374;2023-05-16T02:57:24;20.52;;;16.33;;
22679;SDS011;11507;44.858;10.374;2023-05-16T02:59:50;20.50;;;16.17;;
22679;SDS011;11507;44.858;10.374;2023-05-16T03:04:42;22.02;;;16.10;;
22679;SDS011;11507;44.858;10.374;2023-05-16T03:07:09;23.17;;;17.30;;
22679;SDS011;11507;44.858;10.374;2023-05-16T03:12:01;20.92;;;16.20;;
22679;SDS011;11507;44.858;10.374;2023-05-16T03:14:27;22.05;;;16.45;;
22679;SDS011;11507;44.858;10.374;2023-05-16T03:19:19;22.40;;;17.77;;
22679;SDS011;11507;44.858;10.374;2023-05-16T03:21:45;23.70;;;17.67;;
22679;SDS011;11507;44.858;10.374;2023-05-16T03:24:11;29.65;;;18.95;;
22679;SDS011;11507;44.858;10.374;2023-05-16T03:29:04;24.55;;;18.00;;
22679;SDS011;11507;44.858;10.374;2023-05-16T03:31:30;26.45;;;19.05;;
22679;SDS011;11507;44.858;10.374;2023-05-16T03:33:56;24.20;;;17.52;;
22679;SDS011;11507;44.858;10.374;2023-05-16T03:38:48;26.02;;;17.67;;
22679;SDS011;11507;44.858;10.374;2023-05-16T03:41:14;20.05;;;15.88;;
22679;SDS011;11507;44.858;10.374;2023-05-16T03:43:40;27.55;;;17.48;;
22679;SDS011;11507;44.858;10.374;2023-05-16T03:46:07;22.60;;;18.65;;
22679;SDS011;11507;44.858;10.374;2023-05-16T03:48:33;22.45;;;17.27;;
22679;SDS011;11507;44.858;10.374;2023-05-16T03:53:25;21.42;;;15.88;;
22679;SDS011;11507;44.858;10.374;2023-05-16T03:55:52;18.92;;;13.45;;
22679;SDS011;11507;44.858;10.374;2023-05-16T04:00:44;18.17;;;11.75;;
22679;SDS011;11507;44.858;10.374;2023-05-16T04:03:10;9.23;;;3.45;;
22679;SDS011;11507;44.858;10.374;2023-05-16T04:08:02;6.57;;;2.00;;
22679;SDS011;11507;44.858;10.374;2023-05-16T04:10:28;5.90;;;1.73;;
22679;SDS011;11507;44.858;10.374;2023-05-16T04:12:54;8.35;;;2.08;;
22679;SDS011;11507;44.858;10.374;2023-05-16T04:17:46;4.55;;;1.70;;
22679;SDS011;11507;44.858;10.374;2023-05-16T04:22:37;7.65;;;1.60;;
22679;SDS011;11507;44.858;10.374;2023-05-16T04:25:03;14.32;;;1.77;;
22679;SDS011;11507;44.858;10.374;2023-05-16T04:27:30;3.58;;;1.45;;
22679;SDS011;11507;44.858;10.374;2023-05-16T04:29:56;7.57;;;1.83;;
22679;SDS011;11507;44.858;10.374;2023-05-16T04:32:24;5.65;;;1.67;;
22679;SDS011;11507;44.858;10.374;2023-05-16T04:37:25;6.00;;;1.50;;
22679;SDS011;11507;44.858;10.374;2023-05-16T04:39:52;6.20;;;1.65;;
22679;SDS011;11507;44.858;10.374;2023-05-16T04:42:18;3.20;;;1.48;;
22679;SDS011;11507;44.858;10.374;2023-05-16T04:44:45;6.32;;;2.22;;
22679;SDS011;11507;44.858;10.374;2023-05-16T04:47:12;7.35;;;1.60;;
22679;SDS011;11507;44.858;10.374;2023-05-16T04:49:38;3.40;;;1.50;;
22679;SDS011;11507;44.858;10.374;2023-05-16T04:57:03;5.80;;;1.35;;
22679;SDS011;11507;44.858;10.374;2023-05-16T04:59:29;5.50;;;1.42;;
22679;SDS011;11507;44.858;10.374;2023-05-16T05:04:21;5.95;;;1.40;;
22679;SDS011;11507;44.858;10.374;2023-05-16T05:09:12;5.20;;;1.48;;
22679;SDS011;11507;44.858;10.374;2023-05-16T05:14:04;4.13;;;1.23;;
22679;SDS011;11507;44.858;10.374;2023-05-16T05:18:56;4.47;;;1.30;;
22679;SDS011;11507;44.858;10.374;2023-05-16T05:21:22;6.20;;;1.90;;
22679;SDS011;11507;44.858;10.374;2023-05-16T05:23:49;4.90;;;1.55;;
22679;SDS011;11507;44.858;10.374;2023-05-16T05:26:16;5.05;;;1.40;;
22679;SDS011;11507;44.858;10.374;2023-05-16T05:28:42;6.20;;;1.60;;
22679;SDS011;11507;44.858;10.374;2023-05-16T05:33:35;4.78;;;1.73;;
22679;SDS011;11507;44.858;10.374;2023-05-16T05:36:02;5.97;;;1.67;;
22679;SDS011;11507;44.858;10.374;2023-05-16T05:38:29;3.78;;;1.48;;
22679;SDS011;11507;44.858;10.374;2023-05-16T05:40:54;5.45;;;1.70;;
22679;SDS011;11507;44.858;10.374;2023-05-16T05:45:48;6.32;;;1.55;;
22679;SDS011;11507;44.858;10.374;2023-05-16T05:48:14;3.83;;;1.50;;
22679;SDS011;11507;44.858;10.374;2023-05-16T05:53:06;4.07;;;1.70;;
22679;SDS011;11507;44.858;10.374;2023-05-16T05:55:32;6.95;;;1.90;;
22679;SDS011;11507;44.858;10.374;2023-05-16T06:00:23;7.40;;;1.80;;
22679;SDS011;11507;44.858;10.374;2023-05-16T06:02:50;4.10;;;1.70;;
22679;SDS011;11507;44.858;10.374;2023-05-16T06:07:42;6.27;;;2.10;;
22679;SDS011;11507;44.858;10.374;2023-05-16T06:10:08;4.72;;;2.03;;
22679;SDS011;11507;44.858;10.374;2023-05-16T06:12:35;5.50;;;2.10;;
22679;SDS011;11507;44.858;10.374;2023-05-16T06:15:00;4.22;;;2.30;;
22679;SDS011;11507;44.858;10.374;2023-05-16T06:19:52;5.80;;;3.05;;
22679;SDS011;11507;44.858;10.374;2023-05-16T06:22:18;6.07;;;3.28;;
22679;SDS011;11507;44.858;10.374;2023-05-16T06:27:12;8.25;;;2.78;;
22679;SDS011;11507;44.858;10.374;2023-05-16T06:29:37;6.25;;;2.60;;
22679;SDS011;11507;44.858;10.374;2023-05-16T06:34:31;8.30;;;2.20;;
22679;SDS011;11507;44.858;10.374;2023-05-16T06:39:25;5.47;;;2.03;;
22679;SDS011;11507;44.858;10.374;2023-05-16T06:44:17;3.90;;;2.05;;
22679;SDS011;11507;44.858;10.374;2023-05-16T06:46:44;7.10;;;2.38;;
22679;SDS011;11507;44.858;10.374;2023-05-16T06:51:36;4.20;;;2.05;;
22679;SDS011;11507;44.858;10.374;2023-05-16T06:54:03;5.10;;;1.98;;
22679;SDS011;11507;44.858;10.374;2023-05-16T06:58:56;5.65;;;1.67;;
22679;SDS011;11507;44.858;10.374;2023-05-16T07:03:48;4.03;;;2.00;;
22679;SDS011;11507;44.858;10.374;2023-05-16T07:06:14;4.97;;;1.92;;
22679;SDS011;11507;44.858;10.374;2023-05-16T07:08:40;4.53;;;1.65;;
22679;SDS011;11507;44.858;10.374;2023-05-16T07:13:35;5.88;;;2.17;;
22679;SDS011;11507;44.858;10.374;2023-05-16T07:18:29;4.75;;;1.75;;
22679;SDS011;11507;44.858;10.374;2023-05-16T07:20:55;3.45;;;1.80;;
22679;SDS011;11507;44.858;10.374;2023-05-16T07:25:46;4.22;;;2.03;;
22679;SDS011;11507;44.858;10.374;2023-05-16T07:28:12;4.35;;;2.10;;
22679;SDS011;11507;44.858;10.374;2023-05-16T07:30:39;6.90;;;3.20;;
22679;SDS011;11507;44.858;10.374;2023-05-16T07:35:30;5.10;;;2.88;;
22679;SDS011;11507;44.858;10.374;2023-05-16T07:37:56;4.40;;;2.40;;
22679;SDS011;11507;44.858;10.374;2023-05-16T07:40:25;5.72;;;2.72;;
22679;SDS011;11507;44.858;10.374;2023-05-16T07:42:53;3.95;;;2.45;;
22679;SDS011;11507;44.858;10.374;2023-05-16T07:45:19;3.55;;;2.20;;
22679;SDS011;11507;44.858;10.374;2023-05-16T07:47:45;6.70;;;2.17;;
22679;SDS011;11507;44.858;10.374;2023-05-16T07:50:12;7.18;;;2.35;;
22679;SDS011;11507;44.858;10.374;2023-05-16T07:52:38;3.60;;;2.17;;
22679;SDS011;11507;44.858;10.374;2023-05-16T07:55:04;3.92;;;2.22;;
22679;SDS011;11507;44.858;10.374;2023-05-16T07:57:32;4.72;;;2.30;;
22679;SDS011;11507;44.858;10.374;2023-05-16T07:59:59;5.60;;;2.30;;
22679;SDS011;11507;44.858;10.374;2023-05-16T08:02:25;4.70;;;2.30;;
22679;SDS011;11507;44.858;10.374;2023-05-16T08:04:54;6.53;;;2.40;;
22679;SDS011;11507;44.858;10.374;2023-05-16T08:07:22;4.55;;;2.20;;
22679;SDS011;11507;44.858;10.374;2023-05-16T08:09:48;4.25;;;2.75;;
22679;SDS011;11507;44.858;10.374;2023-05-16T08:12:14;4.75;;;2.30;;
22679;SDS011;11507;44.858;10.374;2023-05-16T08:14:40;3.55;;;2.22;;
22679;SDS011;11507;44.858;10.374;2023-05-16T08:17:05;5.60;;;2.28;;
22679;SDS011;11507;44.858;10.374;2023-05-16T08:19:31;3.83;;;2.00;;
22679;SDS011;11507;44.858;10.374;2023-05-16T08:21:57;3.53;;;2.08;;
22679;SDS011;11507;44.858;10.374;2023-05-16T08:24:23;4.43;;;2.78;;
22679;SDS011;11507;44.858;10.374;2023-05-16T08:26:49;6.57;;;3.10;;
22679;SDS011;11507;44.858;10.374;2023-05-16T08:31:44;5.45;;;2.80;;
22679;SDS011;11507;44.858;10.374;2023-05-16T08:34:10;5.10;;;2.10;;
22679;SDS011;11507;44.858;10.374;2023-05-16T08:36:36;3.75;;;2.00;;
22679;SDS011;11507;44.858;10.374;2023-05-16T08:39:03;4.93;;;2.25;;
22679;SDS011;11507;44.858;10.374;2023-05-16T08:41:29;3.38;;;1.92;;
22679;SDS011;11507;44.858;10.374;2023-05-16T08:43:55;5.40;;;2.20;;
22679;SDS011;11507;44.858;10.374;2023-05-16T08:46:22;6.22;;;2.10;;
22679;SDS011;11507;44.858;10.374;2023-05-16T08:48:52;6.03;;;2.28;;
22679;SDS011;11507;44.858;10.374;2023-05-16T08:51:19;4.32;;;2.22;;
22679;SDS011;11507;44.858;10.374;2023-05-16T08:53:51;5.95;;;2.40;;
22679;SDS011;11507;44.858;10.374;2023-05-16T08:56:23;4.85;;;2.30;;
22679;SDS011;11507;44.858;10.374;2023-05-16T08:58:50;6.28;;;3.00;;
22679;SDS011;11507;44.858;10.374;2023-05-16T09:01:20;3.45;;;1.90;;
22679;SDS011;11507;44.858;10.374;2023-05-16T09:03:47;3.88;;;2.20;;
22679;SDS011;11507;44.858;10.374;2023-05-16T09:06:16;4.18;;;2.53;;
22679;SDS011;11507;44.858;10.374;2023-05-16T09:08:43;5.47;;;2.30;;
22679;SDS011;11507;44.858;10.374;2023-05-16T09:11:09;3.70;;;1.85;;
22679;SDS011;11507;44.858;10.374;2023-05-16T09:13:39;3.22;;;1.80;;
22679;SDS011;11507;44.858;10.374;2023-05-16T09:16:13;7.25;;;1.90;;
22679;SDS011;11507;44.858;10.374;2023-05-16T09:18:39;3.38;;;1.92;;
22679;SDS011;11507;44.858;10.374;2023-05-16T09:21:08;3.67;;;2.10;;
22679;SDS011;11507;44.858;10.374;2023-05-16T09:23:35;4.93;;;1.90;;
22679;SDS011;11507;44.858;10.374;2023-05-16T09:26:02;6.10;;;1.92;;
22679;SDS011;11507;44.858;10.374;2023-05-16T09:28:31;3.53;;;2.30;;
22679;SDS011;11507;44.858;10.374;2023-05-16T09:30:56;6.30;;;2.40;;
22679;SDS011;11507;44.858;10.374;2023-05-16T09:33:27;6.13;;;2.55;;
22679;SDS011;11507;44.858;10.374;2023-05-16T09:35:54;4.45;;;2.45;;
22679;SDS011;11507;44.858;10.374;2023-05-16T09:38:24;5.68;;;2.72;;
22679;SDS011;11507;44.858;10.374;2023-05-16T09:40:54;4.95;;;3.35;;
22679;SDS011;11507;44.858;10.374;2023-05-16T09:43:23;5.55;;;4.00;;
22679;SDS011;11507;44.858;10.374;2023-05-16T09:45:51;9.70;;;6.47;;
22679;SDS011;11507;44.858;10.374;2023-05-16T09:48:17;5.68;;;2.92;;
22679;SDS011;11507;44.858;10.374;2023-05-16T09:50:48;6.75;;;2.30;;
22679;SDS011;11507;44.858;10.374;2023-05-16T09:53:17;4.80;;;2.40;;
22679;SDS011;11507;44.858;10.374;2023-05-16T09:55:58;5.43;;;2.47;;
22679;SDS011;11507;44.858;10.374;2023-05-16T09:58:37;5.40;;;3.90;;
22679;SDS011;11507;44.858;10.374;2023-05-16T10:01:04;6.57;;;2.60;;
22679;SDS011;11507;44.858;10.374;2023-05-16T10:03:33;5.38;;;3.08;;
22679;SDS011;11507;44.858;10.374;2023-05-16T10:06:01;5.32;;;3.10;;
22679;SDS011;11507;44.858;10.374;2023-05-16T10:08:28;6.07;;;2.75;;
22679;SDS011;11507;44.858;10.374;2023-05-16T10:10:56;6.75;;;4.65;;
22679;SDS011;11507;44.858;10.374;2023-05-16T10:13:29;7.85;;;3.58;;
22679;SDS011;11507;44.858;10.374;2023-05-16T10:15:57;4.57;;;3.22;;
22679;SDS011;11507;44.858;10.374;2023-05-16T10:18:28;6.78;;;3.38;;
22679;SDS011;11507;44.858;10.374;2023-05-16T10:20:56;6.93;;;3.78;;
22679;SDS011;11507;44.858;10.374;2023-05-16T10:23:26;6.63;;;3.88;;
22679;SDS011;11507;44.858;10.374;2023-05-16T10:25:52;6.40;;;3.38;;
22679;SDS011;11507;44.858;10.374;2023-05-16T10:28:22;6.28;;;3.58;;
22679;SDS011;11507;44.858;10.374;2023-05-16T10:30:49;4.32;;;3.10;;
22679;SDS011;11507;44.858;10.374;2023-05-16T10:33:17;5.97;;;3.47;;
22679;SDS011;11507;44.858;10.374;2023-05-16T10:35:44;6.47;;;3.42;;
22679;SDS011;11507;44.858;10.374;2023-05-16T10:38:11;8.02;;;3.60;;
22679;SDS011;11507;44.858;10.374;2023-05-16T10:40:40;6.03;;;3.70;;
22679;SDS011;11507;44.858;10.374;2023-05-16T10:43:08;7.45;;;4.70;;
22679;SDS011;11507;44.858;10.374;2023-05-16T10:45:35;6.97;;;4.20;;
22679;SDS011;11507;44.858;10.374;2023-05-16T10:48:05;6.18;;;4.32;;
22679;SDS011;11507;44.858;10.374;2023-05-16T10:50:35;6.60;;;4.25;;
22679;SDS011;11507;44.858;10.374;2023-05-16T11:01:18;7.13;;;4.18;;
22679;SDS011;11507;44.858;10.374;2023-05-16T11:04:00;6.38;;;4.07;;
22679;SDS011;11507;44.858;10.374;2023-05-16T11:09:11;8.30;;;4.32;;
22679;SDS011;11507;44.858;10.374;2023-05-16T11:19:33;7.45;;;4.03;;
22679;SDS011;11507;44.858;10.374;2023-05-16T11:22:37;5.63;;;3.80;;
22679;SDS011;11507;44.858;10.374;2023-05-16T11:25:05;6.97;;;3.50;;
22679;SDS011;11507;44.858;10.374;2023-05-16T11:27:35;7.60;;;4.10;;
22679;SDS011;11507;44.858;10.374;2023-05-16T11:32:33;5.72;;;3.88;;
22679;SDS011;11507;44.858;10.374;2023-05-16T11:35:05;5.47;;;3.58;;
22679;SDS011;11507;44.858;10.374;2023-05-16T11:37:33;9.50;;;3.90;;
22679;SDS011;11507;44.858;10.374;2023-05-16T11:40:05;5.50;;;3.40;;
22679;SDS011;11507;44.858;10.374;2023-05-16T11:42:36;5.53;;;3.20;;
22679;SDS011;11507;44.858;10.374;2023-05-16T11:45:09;5.80;;;3.60;;
22679;SDS011;11507;44.858;10.374;2023-05-16T11:47:39;5.32;;;3.53;;
22679;SDS011;11507;44.858;10.374;2023-05-16T11:50:09;6.30;;;3.17;;
22679;SDS011;11507;44.858;10.374;2023-05-16T11:52:39;4.72;;;3.17;;
22679;SDS011;11507;44.858;10.374;2023-05-16T11:55:08;7.32;;;3.10;;
22679;SDS011;11507;44.858;10.374;2023-05-16T11:57:37;4.93;;;3.22;;
22679;SDS011;11507;44.858;10.374;2023-05-16T12:02:40;5.22;;;3.47;;
22679;SDS011;11507;44.858;10.374;2023-05-16T12:05:06;7.03;;;3.50;;
22679;SDS011;11507;44.858;10.374;2023-05-16T12:07:37;5.93;;;3.70;;
22679;SDS011;11507;44.858;10.374;2023-05-16T12:10:06;5.07;;;3.35;;
22679;SDS011;11507;44.858;10.374;2023-05-16T12:12:37;5.68;;;3.60;;
22679;SDS011;11507;44.858;10.374;2023-05-16T12:15:05;6.68;;;4.00;;
22679;SDS011;11507;44.858;10.374;2023-05-16T12:17:33;6.65;;;3.33;;
22679;SDS011;11507;44.858;10.374;2023-05-16T12:20:00;5.15;;;3.67;;
22679;SDS011;11507;44.858;10.374;2023-05-16T12:22:29;5.70;;;4.05;;
22679;SDS011;11507;44.858;10.374;2023-05-16T12:24:57;8.20;;;4.30;;
22679;SDS011;11507;44.858;10.374;2023-05-16T12:27:27;6.03;;;4.10;;
22679;SDS011;11507;44.858;10.374;2023-05-16T12:29:53;5.85;;;4.22;;
22679;SDS011;11507;44.858;10.374;2023-05-16T12:32:22;8.05;;;4.35;;
22679;SDS011;11507;44.858;10.374;2023-05-16T12:34:48;7.60;;;4.60;;
22679;SDS011;11507;44.858;10.374;2023-05-16T12:37:20;7.18;;;3.92;;
22679;SDS011;11507;44.858;10.374;2023-05-16T12:39:46;6.63;;;4.18;;
22679;SDS011;11507;44.858;10.374;2023-05-16T12:42:15;5.82;;;3.80;;
22679;SDS011;11507;44.858;10.374;2023-05-16T12:44:44;5.30;;;4.07;;
22679;SDS011;11507;44.858;10.374;2023-05-16T12:47:11;8.80;;;4.20;;
22679;SDS011;11507;44.858;10.374;2023-05-16T12:49:43;5.63;;;4.05;;
22679;SDS011;11507;44.858;10.374;2023-05-16T12:52:11;6.65;;;4.60;;
22679;SDS011;11507;44.858;10.374;2023-05-16T12:54:43;7.55;;;4.63;;
22679;SDS011;11507;44.858;10.374;2023-05-16T12:57:09;5.95;;;4.40;;
22679;SDS011;11507;44.858;10.374;2023-05-16T12:59:36;6.45;;;4.85;;
22679;SDS011;11507;44.858;10.374;2023-05-16T13:02:02;9.88;;;4.97;;
22679;SDS011;11507;44.858;10.374;2023-05-16T13:04:28;7.22;;;4.95;;
22679;SDS011;11507;44.858;10.374;2023-05-16T13:06:54;7.72;;;5.07;;
22679;SDS011;11507;44.858;10.374;2023-05-16T13:09:21;8.73;;;5.55;;
22679;SDS011;11507;44.858;10.374;2023-05-16T13:11:47;7.03;;;5.32;;
22679;SDS011;11507;44.858;10.374;2023-05-16T13:14:14;9.35;;;5.53;;
22679;SDS011;11507;44.858;10.374;2023-05-16T13:16:42;9.23;;;6.05;;
22679;SDS011;11507;44.858;10.374;2023-05-16T13:19:09;7.35;;;4.80;;
22679;SDS011;11507;44.858;10.374;2023-05-16T13:21:35;7.72;;;4.68;;
22679;SDS011;11507;44.858;10.374;2023-05-16T13:24:01;6.20;;;4.30;;
22679;SDS011;11507;44.858;10.374;2023-05-16T13:26:27;8.43;;;4.35;;
22679;SDS011;11507;44.858;10.374;2023-05-16T13:28:54;7.13;;;4.45;;
22679;SDS011;11507;44.858;10.374;2023-05-16T13:31:20;6.55;;;3.85;;
22679;SDS011;11507;44.858;10.374;2023-05-16T13:33:48;6.35;;;4.20;;
22679;SDS011;11507;44.858;10.374;2023-05-16T13:36:15;7.35;;;3.80;;
22679;SDS011;11507;44.858;10.374;2023-05-16T13:38:40;7.60;;;3.88;;
22679;SDS011;11507;44.858;10.374;2023-05-16T13:41:08;5.88;;;3.20;;
22679;SDS011;11507;44.858;10.374;2023-05-16T13:43:34;7.95;;;4.00;;
22679;SDS011;11507;44.858;10.374;2023-05-16T13:46:01;6.25;;;3.88;;
22679;SDS011;11507;44.858;10.374;2023-05-16T13:48:27;8.70;;;4.40;;
22679;SDS011;11507;44.858;10.374;2023-05-16T13:50:53;7.72;;;4.40;;
22679;SDS011;11507;44.858;10.374;2023-05-16T13:53:20;6.20;;;4.00;;
22679;SDS011;11507;44.858;10.374;2023-05-16T13:55:45;6.28;;;4.25;;
22679;SDS011;11507;44.858;10.374;2023-05-16T13:58:12;5.95;;;4.18;;
22679;SDS011;11507;44.858;10.374;2023-05-16T14:00:38;8.60;;;4.32;;
22679;SDS011;11507;44.858;10.374;2023-05-16T14:03:03;7.65;;;4.35;;
22679;SDS011;11507;44.858;10.374;2023-05-16T14:05:29;8.45;;;5.55;;
22679;SDS011;11507;44.858;10.374;2023-05-16T14:07:55;16.30;;;9.23;;
22679;SDS011;11507;44.858;10.374;2023-05-16T14:10:22;10.27;;;6.43;;
22679;SDS011;11507;44.858;10.374;2023-05-16T14:12:48;13.27;;;8.23;;
22679;SDS011;11507;44.858;10.374;2023-05-16T14:15:14;12.05;;;7.50;;
22679;SDS011;11507;44.858;10.374;2023-05-16T14:17:39;8.73;;;5.22;;
22679;SDS011;11507;44.858;10.374;2023-05-16T14:20:05;7.15;;;4.00;;
22679;SDS011;11507;44.858;10.374;2023-05-16T14:22:35;7.65;;;4.07;;
22679;SDS011;11507;44.858;10.374;2023-05-16T14:25:02;7.90;;;4.30;;
22679;SDS011;11507;44.858;10.374;2023-05-16T14:27:28;10.00;;;5.85;;
22679;SDS011;11507;44.858;10.374;2023-05-16T14:29:57;9.38;;;5.88;;
22679;SDS011;11507;44.858;10.374;2023-05-16T14:32:24;8.50;;;5.03;;
22679;SDS011;11507;44.858;10.374;2023-05-16T14:34:50;10.05;;;5.38;;
22679;SDS011;11507;44.858;10.374;2023-05-16T14:37:17;7.60;;;5.40;;
22679;SDS011;11507;44.858;10.374;2023-05-16T14:39:45;9.35;;;6.00;;
22679;SDS011;11507;44.858;10.374;2023-05-16T14:42:14;8.27;;;5.70;;
22679;SDS011;11507;44.858;10.374;2023-05-16T14:44:40;9.18;;;6.18;;
22679;SDS011;11507;44.858;10.374;2023-05-16T14:49:35;11.65;;;7.85;;
22679;SDS011;11507;44.858;10.374;2023-05-16T14:52:02;13.00;;;8.85;;
22679;SDS011;11507;44.858;10.374;2023-05-16T14:54:29;12.25;;;7.05;;
22679;SDS011;11507;44.858;10.374;2023-05-16T14:56:55;11.68;;;7.50;;
22679;SDS011;11507;44.858;10.374;2023-05-16T14:59:21;9.85;;;6.72;;
22679;SDS011;11507;44.858;10.374;2023-05-16T15:01:47;10.27;;;6.78;;
22679;SDS011;11507;44.858;10.374;2023-05-16T15:04:13;11.73;;;6.53;;
22679;SDS011;11507;44.858;10.374;2023-05-16T15:06:39;11.20;;;7.30;;
22679;SDS011;11507;44.858;10.374;2023-05-16T15:09:05;9.77;;;6.88;;
22679;SDS011;11507;44.858;10.374;2023-05-16T15:11:31;9.82;;;7.00;;
22679;SDS011;11507;44.858;10.374;2023-05-16T15:13:57;13.35;;;7.07;;
22679;SDS011;11507;44.858;10.374;2023-05-16T15:16:23;12.55;;;7.18;;
22679;SDS011;11507;44.858;10.374;2023-05-16T15:18:49;11.23;;;7.55;;
22679;SDS011;11507;44.858;10.374;2023-05-16T15:21:16;9.63;;;6.88;;
22679;SDS011;11507;44.858;10.374;2023-05-16T15:23:42;10.07;;;7.55;;
22679;SDS011;11507;44.858;10.374;2023-05-16T15:26:08;15.18;;;7.93;;
22679;SDS011;11507;44.858;10.374;2023-05-16T15:28:34;12.95;;;9.00;;
22679;SDS011;11507;44.858;10.374;2023-05-16T15:31:02;10.95;;;7.63;;
22679;SDS011;11507;44.858;10.374;2023-05-16T15:33:30;13.95;;;8.20;;
22679;SDS011;11507;44.858;10.374;2023-05-16T15:35:57;12.13;;;7.63;;
22679;SDS011;11507;44.858;10.374;2023-05-16T15:38:24;12.18;;;8.45;;
22679;SDS011;11507;44.858;10.374;2023-05-16T15:40:51;10.95;;;7.45;;
22679;SDS011;11507;44.858;10.374;2023-05-16T15:43:18;11.65;;;7.47;;
22679;SDS011;11507;44.858;10.374;2023-05-16T15:45:44;13.15;;;8.13;;
22679;SDS011;11507;44.858;10.374;2023-05-16T15:48:13;13.02;;;8.00;;
22679;SDS011;11507;44.858;10.374;2023-05-16T15:53:17;10.52;;;7.50;;
22679;SDS011;11507;44.858;10.374;2023-05-16T15:55:47;11.52;;;7.63;;
22679;SDS011;11507;44.858;10.374;2023-05-16T15:58:17;14.13;;;8.05;;
22679;SDS011;11507;44.858;10.374;2023-05-16T16:00:43;11.93;;;8.43;;
22679;SDS011;11507;44.858;10.374;2023-05-16T16:03:14;11.93;;;8.63;;
22679;SDS011;11507;44.858;10.374;2023-05-16T16:05:43;12.27;;;7.97;;
22679;SDS011;11507;44.858;10.374;2023-05-16T16:08:09;12.07;;;7.95;;
22679;SDS011;11507;44.858;10.374;2023-05-16T16:10:36;13.95;;;8.02;;
22679;SDS011;11507;44.858;10.374;2023-05-16T16:13:03;12.30;;;7.75;;
22679;SDS011;11507;44.858;10.374;2023-05-16T16:15:29;9.75;;;7.13;;
22679;SDS011;11507;44.858;10.374;2023-05-16T16:17:59;12.23;;;7.53;;
22679;SDS011;11507;44.858;10.374;2023-05-16T16:20:26;13.27;;;8.05;;
22679;SDS011;11507;44.858;10.374;2023-05-16T16:22:54;11.25;;;8.02;;
22679;SDS011;11507;44.858;10.374;2023-05-16T16:25:20;10.90;;;7.95;;
22679;SDS011;11507;44.858;10.374;2023-05-16T16:27:47;11.65;;;7.72;;
22679;SDS011;11507;44.858;10.374;2023-05-16T16:30:14;10.55;;;7.63;;
22679;SDS011;11507;44.858;10.374;2023-05-16T16:32:43;10.38;;;7.45;;
22679;SDS011;11507;44.858;10.374;2023-05-16T16:35:10;12.70;;;7.80;;
22679;SDS011;11507;44.858;10.374;2023-05-16T16:37:38;12.40;;;7.70;;
22679;SDS011;11507;44.858;10.374;2023-05-16T16:40:07;11.43;;;7.53;;
22679;SDS011;11507;44.858;10.374;2023-05-16T16:42:34;12.50;;;7.65;;
22679;SDS011;11507;44.858;10.374;2023-05-16T16:45:03;11.73;;;7.47;;
22679;SDS011;11507;44.858;10.374;2023-05-16T16:47:31;11.27;;;7.45;;
22679;SDS011;11507;44.858;10.374;2023-05-16T16:50:04;10.75;;;7.00;;
22679;SDS011;11507;44.858;10.374;2023-05-16T16:52:33;9.93;;;6.97;;
22679;SDS011;11507;44.858;10.374;2023-05-16T16:55:06;11.88;;;7.07;;
22679;SDS011;11507;44.858;10.374;2023-05-16T16:57:33;9.00;;;6.75;;